Time;durP1;ratioP1;P1;durP2;ratioP2;P2;SDS_P1;SDS_P2;PMS_P1;PMS_P2;Temp;Humidity;BMP_temperature;BMP_pressure;BME280_temperature;BME280_humidity;BME280_pressure;Samples;Min_cycle;Max_cycle;Signal;HPM_P1;HPM_P2
2022/09/29 00:00:00;;;;;;;0.20;0.10;;;;;;;;;;4985720;28;20193;-88
2022/09/29 00:02:26;;;;;;;0.20;0.10;;;;;;;;;;4995705;28;20037;-87
2022/09/29 00:04:52;;;;;;;0.20;0.10;;;;;;;;;;4992662;28;20045;-87
2022/09/29 00:07:18;;;;;;;0.20;0.10;;;;;;;;;;4993106;28;20049;-88
2022/09/29 00:09:44;;;;;;;0.20;0.10;;;;;;;;;;4994871;28;20045;-88
2022/09/29 00:12:10;;;;;;;0.20;0.10;;;;;;;;;;4994785;28;20091;-88
2022/09/29 00:14:36;;;;;;;0.20;0.10;;;;;;;;;;4981937;28;20068;-87
2022/09/29 00:17:02;;;;;;;0.20;0.10;;;;;;;;;;4993152;28;20049;-88
2022/09/29 00:19:29;;;;;;;0.20;0.10;;;;;;;;;;4981627;28;20034;-87
2022/09/29 00:21:55;;;;;;;0.20;0.20;;;;;;;;;;4997964;28;22222;-87
2022/09/29 00:24:21;;;;;;;0.20;0.10;;;;;;;;;;4985005;28;20049;-88
2022/09/29 00:26:47;;;;;;;0.20;0.10;;;;;;;;;;4974261;28;20111;-88
2022/09/29 00:29:13;;;;;;;0.20;0.10;;;;;;;;;;4990332;28;20551;-88
2022/09/29 00:31:39;;;;;;;0.20;0.10;;;;;;;;;;5002897;28;20504;-88
2022/09/29 00:34:05;;;;;;;0.20;0.10;;;;;;;;;;5000160;28;20378;-88
2022/09/29 00:36:31;;;;;;;0.20;0.10;;;;;;;;;;4998034;28;20045;-87
2022/09/29 00:38:58;;;;;;;0.20;0.10;;;;;;;;;;4982722;28;20474;-87
2022/09/29 00:41:25;;;;;;;0.20;0.10;;;;;;;;;;4991563;28;20535;-87
2022/09/29 00:43:51;;;;;;;0.20;0.10;;;;;;;;;;5005319;28;20037;-88
2022/09/29 00:46:24;;;;;;;0.30;0.20;;;;;;;;;;4981027;28;20093;-88
2022/09/29 00:48:50;;;;;;;0.20;0.10;;;;;;;;;;4999483;28;20081;-87
2022/09/29 00:51:17;;;;;;;0.20;0.05;;;;;;;;;;4992740;28;20419;-87
2022/09/29 00:53:43;;;;;;;0.20;0.10;;;;;;;;;;4992247;28;20052;-87
2022/09/29 00:56:11;;;;;;;0.20;0.10;;;;;;;;;;4997955;28;20532;-88
2022/09/29 00:58:42;;;;;;;0.20;0.10;;;;;;;;;;4982914;28;20492;-86
2022/09/29 01:01:09;;;;;;;0.20;0.10;;;;;;;;;;4997630;28;20049;-87
2022/09/29 01:03:38;;;;;;;0.20;0.10;;;;;;;;;;4984714;28;20096;-87
2022/09/29 01:06:12;;;;;;;0.20;0.10;;;;;;;;;;5001255;28;20041;-87
2022/09/29 01:09:00;;;;;;;0.20;0.00;;;;;;;;;;4999644;28;20041;-88
2022/09/29 01:11:27;;;;;;;0.20;0.10;;;;;;;;;;4980630;28;20041;-87
2022/09/29 01:13:56;;;;;;;0.20;0.10;;;;;;;;;;4988065;28;20037;-87
2022/09/29 01:16:22;;;;;;;0.20;0.10;;;;;;;;;;4999444;28;20069;-87
2022/09/29 01:18:51;;;;;;;0.20;0.10;;;;;;;;;;4984413;28;20040;-88
2022/09/29 01:21:27;;;;;;;0.20;0.10;;;;;;;;;;5000860;28;20033;-87
2022/09/29 01:24:08;;;;;;;0.20;0.10;;;;;;;;;;4998908;28;20037;-87
2022/09/29 01:26:54;;;;;;;0.20;0.10;;;;;;;;;;4998268;28;20069;-88
2022/09/29 01:29:23;;;;;;;0.20;0.10;;;;;;;;;;4997033;28;20618;-87
2022/09/29 01:31:52;;;;;;;0.20;0.00;;;;;;;;;;4997375;28;20033;-87
2022/09/29 01:34:23;;;;;;;0.20;0.10;;;;;;;;;;5004862;28;20037;-88
2022/09/29 01:36:50;;;;;;;0.20;0.00;;;;;;;;;;5002861;28;20433;-88
2022/09/29 01:39:25;;;;;;;0.20;0.10;;;;;;;;;;4997205;28;20408;-87
2022/09/29 01:41:57;;;;;;;0.20;0.10;;;;;;;;;;4996295;28;20400;-87
2022/09/29 01:44:28;;;;;;;0.20;0.10;;;;;;;;;;4988706;28;20272;-88
2022/09/29 01:46:56;;;;;;;0.20;0.10;;;;;;;;;;4999068;28;20041;-88
2022/09/29 01:49:24;;;;;;;0.20;0.10;;;;;;;;;;4994279;28;20048;-87
2022/09/29 01:52:00;;;;;;;0.20;0.10;;;;;;;;;;4981888;28;20045;-88
2022/09/29 01:54:45;;;;;;;0.20;0.10;;;;;;;;;;4998400;28;20110;-87
2022/09/29 01:57:17;;;;;;;0.20;0.10;;;;;;;;;;4999105;28;20477;-87
2022/09/29 01:59:58;;;;;;;0.20;0.20;;;;;;;;;;4992733;28;20033;-88
2022/09/29 02:02:30;;;;;;;0.20;0.10;;;;;;;;;;4979841;28;20128;-87
2022/09/29 02:04:58;;;;;;;0.20;0.10;;;;;;;;;;4982889;28;20195;-87
2022/09/29 02:07:27;;;;;;;0.20;0.00;;;;;;;;;;4985570;28;20408;-87
2022/09/29 02:10:00;;;;;;;0.20;0.10;;;;;;;;;;4995182;28;20041;-88
2022/09/29 02:12:28;;;;;;;0.20;0.10;;;;;;;;;;4985665;28;20049;-88
2022/09/29 02:14:54;;;;;;;0.20;0.10;;;;;;;;;;4998572;28;20042;-87
2022/09/29 02:17:22;;;;;;;0.20;0.10;;;;;;;;;;4997147;28;20475;-87
2022/09/29 02:19:50;;;;;;;0.20;0.10;;;;;;;;;;4998139;28;20030;-87
2022/09/29 02:22:16;;;;;;;0.20;0.10;;;;;;;;;;4976937;28;20037;-88
2022/09/29 02:24:42;;;;;;;0.20;0.10;;;;;;;;;;4985295;28;20041;-88
2022/09/29 02:27:08;;;;;;;0.20;0.00;;;;;;;;;;4988489;28;20092;-88
2022/09/29 02:29:35;;;;;;;0.20;0.10;;;;;;;;;;4990721;28;20320;-88
2022/09/29 02:32:02;;;;;;;0.20;0.10;;;;;;;;;;4984127;28;20037;-87
2022/09/29 02:34:30;;;;;;;0.20;0.10;;;;;;;;;;5000883;28;20149;-87
2022/09/29 02:37:00;;;;;;;0.20;0.10;;;;;;;;;;4982653;28;20072;-86
2022/09/29 02:39:32;;;;;;;0.20;0.10;;;;;;;;;;5004346;28;20045;-87
2022/09/29 02:41:58;;;;;;;;;;;;;;;;;;4998461;28;20034;-87
2022/09/29 02:44:44;;;;;;;0.20;0.10;;;;;;;;;;4998381;28;19917;-87
2022/09/29 02:47:13;;;;;;;0.20;0.10;;;;;;;;;;4985721;28;20037;-87
2022/09/29 02:49:42;;;;;;;0.20;0.10;;;;;;;;;;4989628;28;20095;-88
2022/09/29 02:52:10;;;;;;;0.20;0.10;;;;;;;;;;4998170;28;20156;-88
2022/09/29 02:54:45;;;;;;;0.20;0.10;;;;;;;;;;4987744;28;20099;-88
2022/09/29 02:57:50;;;;;;;0.20;0.10;;;;;;;;;;4979894;28;20046;-86
2022/09/29 03:00:17;;;;;;;0.20;0.10;;;;;;;;;;4917918;29;20070;-87
2022/09/29 03:02:43;;;;;;;0.20;0.10;;;;;;;;;;4898791;29;20529;-88
2022/09/29 03:05:11;;;;;;;0.20;0.10;;;;;;;;;;4948840;28;20521;-87
2022/09/29 03:07:37;;;;;;;0.20;0.10;;;;;;;;;;4998472;28;20044;-87
2022/09/29 03:10:04;;;;;;;0.20;0.10;;;;;;;;;;4997118;28;20523;-87
2022/09/29 03:12:30;;;;;;;0.20;0.10;;;;;;;;;;4992595;28;20076;-88
2022/09/29 03:14:56;;;;;;;0.20;0.10;;;;;;;;;;4995094;28;21702;-87
2022/09/29 03:17:22;;;;;;;0.20;0.10;;;;;;;;;;4998412;28;20128;-87
2022/09/29 03:19:48;;;;;;;0.20;0.10;;;;;;;;;;4982429;28;20124;-88
2022/09/29 03:22:15;;;;;;;0.20;0.10;;;;;;;;;;4995232;28;20042;-87
2022/09/29 03:24:41;;;;;;;0.20;0.10;;;;;;;;;;4982948;28;20044;-87
2022/09/29 03:27:08;;;;;;;0.20;0.10;;;;;;;;;;4995795;28;20415;-88
2022/09/29 03:29:35;;;;;;;0.20;0.10;;;;;;;;;;4967226;28;20045;-88
2022/09/29 03:32:01;;;;;;;0.20;0.10;;;;;;;;;;4967087;28;20118;-87
2022/09/29 03:34:28;;;;;;;0.20;0.05;;;;;;;;;;4979973;28;20045;-88
2022/09/29 03:36:54;;;;;;;0.20;0.10;;;;;;;;;;4984786;28;20033;-87
2022/09/29 03:39:20;;;;;;;0.20;0.10;;;;;;;;;;4988266;28;20033;-88
2022/09/29 03:41:46;;;;;;;0.20;0.10;;;;;;;;;;5000013;28;20119;-87
2022/09/29 03:44:12;;;;;;;0.20;0.10;;;;;;;;;;4994960;28;20140;-88
2022/09/29 03:46:38;;;;;;;0.20;0.10;;;;;;;;;;4998050;28;20041;-88
2022/09/29 03:49:04;;;;;;;0.20;0.10;;;;;;;;;;4983583;28;20037;-88
2022/09/29 03:51:31;;;;;;;0.20;0.10;;;;;;;;;;4999137;28;20100;-88
2022/09/29 03:53:57;;;;;;;0.20;0.17;;;;;;;;;;4997181;28;20048;-87
2022/09/29 03:56:23;;;;;;;0.20;0.10;;;;;;;;;;4988598;28;20471;-88
2022/09/29 03:58:49;;;;;;;0.20;0.10;;;;;;;;;;4998629;28;20124;-87
2022/09/29 04:01:15;;;;;;;0.20;0.10;;;;;;;;;;4999926;28;20488;-88
2022/09/29 04:03:41;;;;;;;0.20;0.10;;;;;;;;;;4990927;28;20432;-88
2022/09/29 04:06:07;;;;;;;0.20;0.10;;;;;;;;;;5001062;28;21184;-88
2022/09/29 04:08:36;;;;;;;0.20;0.00;;;;;;;;;;4999624;28;20049;-87
2022/09/29 04:11:02;;;;;;;0.20;0.10;;;;;;;;;;5000936;28;20328;-87
2022/09/29 04:13:28;;;;;;;0.20;0.10;;;;;;;;;;5016552;22;20025;-83
2022/09/29 04:15:59;;;;;;;0.20;0.10;;;;;;;;;;4953610;28;20124;-82
2022/09/29 04:18:25;;;;;;;0.20;0.10;;;;;;;;;;4969640;28;20065;-85
2022/09/29 04:20:51;;;;;;;0.20;0.10;;;;;;;;;;4984369;28;20049;-83
2022/09/29 04:23:17;;;;;;;0.20;0.10;;;;;;;;;;4984292;28;20488;-84
2022/09/29 04:25:46;;;;;;;0.30;0.20;;;;;;;;;;4965241;28;20513;-84
2022/09/29 04:28:12;;;;;;;0.20;0.10;;;;;;;;;;4973927;28;20046;-83
2022/09/29 04:30:39;;;;;;;0.20;0.10;;;;;;;;;;4965330;28;20052;-84
2022/09/29 04:33:05;;;;;;;0.20;0.10;;;;;;;;;;4951454;28;20110;-84
2022/09/29 04:35:31;;;;;;;0.20;0.10;;;;;;;;;;4966923;28;20038;-83
2022/09/29 04:37:58;;;;;;;0.20;0.10;;;;;;;;;;4985893;28;20056;-84
2022/09/29 04:40:24;;;;;;;0.20;0.10;;;;;;;;;;4974120;28;20076;-83
2022/09/29 04:42:50;;;;;;;0.20;0.10;;;;;;;;;;5005528;28;20037;-84
2022/09/29 04:45:16;;;;;;;0.20;0.10;;;;;;;;;;4976706;28;20045;-84
2022/09/29 04:47:42;;;;;;;0.20;0.10;;;;;;;;;;4987771;28;20133;-83
2022/09/29 04:50:09;;;;;;;0.20;0.10;;;;;;;;;;4975138;28;20132;-84
2022/09/29 04:52:35;;;;;;;0.20;0.10;;;;;;;;;;4969043;28;20149;-85
2022/09/29 04:55:02;;;;;;;0.20;0.10;;;;;;;;;;4969661;28;20092;-84
2022/09/29 04:57:28;;;;;;;0.20;0.10;;;;;;;;;;4952335;28;20056;-85
2022/09/29 04:59:55;;;;;;;0.20;0.10;;;;;;;;;;4999887;28;20096;-85
2022/09/29 05:02:21;;;;;;;0.20;0.10;;;;;;;;;;4960776;28;20046;-84
2022/09/29 05:04:48;;;;;;;0.20;0.10;;;;;;;;;;4980389;28;20058;-84
2022/09/29 05:07:14;;;;;;;0.20;0.10;;;;;;;;;;4949056;28;20042;-84
2022/09/29 05:09:40;;;;;;;0.20;0.10;;;;;;;;;;4978087;28;20042;-85
2022/09/29 05:12:06;;;;;;;0.20;0.10;;;;;;;;;;4956333;28;20120;-84
2022/09/29 05:14:33;;;;;;;0.20;0.10;;;;;;;;;;4969954;28;20037;-85
2022/09/29 05:16:59;;;;;;;0.20;0.10;;;;;;;;;;4948993;28;20038;-85
2022/09/29 05:19:25;;;;;;;0.20;0.10;;;;;;;;;;4967143;28;20486;-85
2022/09/29 05:21:52;;;;;;;0.20;0.05;;;;;;;;;;5003951;28;20045;-84
2022/09/29 05:24:18;;;;;;;0.20;0.10;;;;;;;;;;4953577;28;20046;-84
2022/09/29 05:26:44;;;;;;;0.20;0.10;;;;;;;;;;4964731;28;20113;-84
2022/09/29 05:29:10;;;;;;;0.20;0.10;;;;;;;;;;4981422;28;20048;-85
2022/09/29 05:31:36;;;;;;;0.20;0.10;;;;;;;;;;4964876;28;20605;-84
2022/09/29 05:34:02;;;;;;;0.20;0.10;;;;;;;;;;4963395;28;20629;-85
2022/09/29 05:36:28;;;;;;;0.20;0.20;;;;;;;;;;4970553;28;20117;-85
2022/09/29 05:38:55;;;;;;;0.20;0.10;;;;;;;;;;4956014;28;20124;-85
2022/09/29 05:41:22;;;;;;;0.20;0.10;;;;;;;;;;4961330;28;20030;-85
2022/09/29 05:43:48;;;;;;;0.20;0.03;;;;;;;;;;4963222;28;20045;-85
2022/09/29 05:46:15;;;;;;;0.20;0.10;;;;;;;;;;4962486;28;20042;-84
2022/09/29 05:48:45;;;;;;;0.20;0.10;;;;;;;;;;4979565;28;20076;-85
2022/09/29 05:51:12;;;;;;;0.20;0.10;;;;;;;;;;4976798;28;20580;-84
2022/09/29 05:53:38;;;;;;;0.20;0.10;;;;;;;;;;4976934;28;20042;-85
2022/09/29 05:56:15;;;;;;;0.20;0.10;;;;;;;;;;4981490;28;20366;-83
2022/09/29 05:58:41;;;;;;;0.20;0.10;;;;;;;;;;4981332;28;20046;-85
2022/09/29 06:01:08;;;;;;;0.20;0.10;;;;;;;;;;4976258;28;20045;-84
2022/09/29 06:03:35;;;;;;;0.20;0.10;;;;;;;;;;4952239;28;20428;-85
2022/09/29 06:06:15;;;;;;;0.20;0.00;;;;;;;;;;4978761;28;20044;-84
2022/09/29 06:08:41;;;;;;;0.20;0.00;;;;;;;;;;4978010;28;20038;-84
2022/09/29 06:11:08;;;;;;;0.20;0.10;;;;;;;;;;4976990;28;20042;-85
2022/09/29 06:13:37;;;;;;;0.20;0.10;;;;;;;;;;4963206;28;20516;-84
2022/09/29 06:16:03;;;;;;;0.20;0.10;;;;;;;;;;4987604;28;20034;-85
2022/09/29 06:18:30;;;;;;;0.20;0.10;;;;;;;;;;4947242;28;20053;-85
2022/09/29 06:21:00;;;;;;;0.20;0.10;;;;;;;;;;4948303;28;20408;-84
2022/09/29 06:23:26;;;;;;;0.20;0.10;;;;;;;;;;4979010;28;20568;-85
2022/09/29 06:25:56;;;;;;;0.20;0.20;;;;;;;;;;4970314;28;20076;-85
2022/09/29 06:28:22;;;;;;;0.20;0.10;;;;;;;;;;4982060;28;20065;-85
2022/09/29 06:30:48;;;;;;;0.20;0.10;;;;;;;;;;4974705;28;20053;-85
2022/09/29 06:33:14;;;;;;;0.20;0.10;;;;;;;;;;4957617;28;20038;-85
2022/09/29 06:38:30;;;;;;;0.20;0.03;;;;;;;;;;4979277;28;20073;-85
2022/09/29 06:40:56;;;;;;;0.20;0.10;;;;;;;;;;4952290;28;20034;-85
2022/09/29 06:43:22;;;;;;;0.20;0.10;;;;;;;;;;4983320;28;20564;-84
2022/09/29 06:45:51;;;;;;;0.20;0.10;;;;;;;;;;4969014;28;20049;-84
2022/09/29 06:48:17;;;;;;;0.20;0.10;;;;;;;;;;4958792;28;20527;-84
2022/09/29 06:50:44;;;;;;;0.20;0.10;;;;;;;;;;4996134;28;20050;-84
2022/09/29 06:53:10;;;;;;;0.20;0.10;;;;;;;;;;4969445;28;20037;-85
2022/09/29 06:55:36;;;;;;;0.20;0.10;;;;;;;;;;4970852;28;20041;-85
2022/09/29 06:58:02;;;;;;;0.30;0.20;;;;;;;;;;4970607;28;20040;-84
2022/09/29 07:00:28;;;;;;;0.20;0.10;;;;;;;;;;4968802;28;20524;-84
2022/09/29 07:02:54;;;;;;;0.20;0.10;;;;;;;;;;4953268;28;20046;-84
2022/09/29 07:05:20;;;;;;;0.20;0.10;;;;;;;;;;4980008;28;20038;-84
2022/09/29 07:07:49;;;;;;;0.20;0.10;;;;;;;;;;4978101;28;20040;-84
2022/09/29 07:10:15;;;;;;;0.20;0.10;;;;;;;;;;4970332;28;20120;-84
2022/09/29 07:12:45;;;;;;;0.20;0.10;;;;;;;;;;4961051;28;20488;-83
2022/09/29 07:15:11;;;;;;;0.20;0.10;;;;;;;;;;4969469;28;20048;-84
2022/09/29 07:17:38;;;;;;;0.20;0.10;;;;;;;;;;4976722;28;20126;-84
2022/09/29 07:20:04;;;;;;;0.20;0.10;;;;;;;;;;4975447;28;20050;-84
2022/09/29 07:22:30;;;;;;;0.20;0.10;;;;;;;;;;4965458;28;20034;-84
2022/09/29 07:24:56;;;;;;;0.20;0.10;;;;;;;;;;4979509;28;20034;-84
2022/09/29 07:27:23;;;;;;;0.20;0.00;;;;;;;;;;4945668;28;20073;-85
2022/09/29 07:29:52;;;;;;;0.20;0.10;;;;;;;;;;4979740;28;20058;-85
2022/09/29 07:32:19;;;;;;;0.20;0.10;;;;;;;;;;4979720;28;20038;-84
2022/09/29 07:34:45;;;;;;;0.20;0.00;;;;;;;;;;4966526;28;20046;-84
2022/09/29 07:37:11;;;;;;;0.20;0.10;;;;;;;;;;4982099;28;20522;-85
2022/09/29 07:39:38;;;;;;;0.20;0.10;;;;;;;;;;4980895;28;20061;-84
2022/09/29 07:42:05;;;;;;;0.20;0.20;;;;;;;;;;4984953;28;20042;-83
2022/09/29 07:44:31;;;;;;;0.20;0.10;;;;;;;;;;4961905;28;20511;-83
2022/09/29 07:46:57;;;;;;;0.20;0.10;;;;;;;;;;4967636;28;20042;-84
2022/09/29 07:49:23;;;;;;;0.20;0.10;;;;;;;;;;4957524;28;20196;-84
2022/09/29 07:51:51;;;;;;;0.20;0.10;;;;;;;;;;4980300;28;20101;-83
2022/09/29 07:54:17;;;;;;;0.20;0.10;;;;;;;;;;4971408;28;20050;-83
2022/09/29 07:56:43;;;;;;;0.20;0.00;;;;;;;;;;4964585;28;20042;-84
2022/09/29 07:59:12;;;;;;;0.20;0.03;;;;;;;;;;4966076;28;20034;-84
2022/09/29 08:01:41;;;;;;;0.20;0.10;;;;;;;;;;4984088;28;20034;-83
2022/09/29 08:04:13;;;;;;;0.20;0.10;;;;;;;;;;4981448;28;20050;-83
2022/09/29 08:06:42;;;;;;;0.20;0.10;;;;;;;;;;4982407;28;20034;-83
2022/09/29 08:09:11;;;;;;;0.60;0.60;;;;;;;;;;4991724;28;20045;-83
2022/09/29 08:11:38;;;;;;;0.22;0.13;;;;;;;;;;4978520;28;20057;-82
2022/09/29 08:14:07;;;;;;;0.20;0.10;;;;;;;;;;4963749;28;20038;-83
2022/09/29 08:16:35;;;;;;;0.20;0.10;;;;;;;;;;4960873;28;20414;-83
2022/09/29 08:19:05;;;;;;;0.20;0.10;;;;;;;;;;4968240;28;20034;-83
2022/09/29 08:21:35;;;;;;;0.20;0.10;;;;;;;;;;4976043;28;20156;-84
2022/09/29 08:24:04;;;;;;;0.20;0.10;;;;;;;;;;4963561;28;20038;-84
2022/09/29 08:26:31;;;;;;;0.20;0.10;;;;;;;;;;4967890;28;20048;-84
2022/09/29 08:28:57;;;;;;;0.20;0.10;;;;;;;;;;4983823;28;20508;-83
2022/09/29 08:31:24;;;;;;;0.20;0.10;;;;;;;;;;4969111;28;20026;-84
2022/09/29 08:33:51;;;;;;;0.20;0.10;;;;;;;;;;4979650;28;20125;-83
2022/09/29 08:36:23;;;;;;;0.20;0.10;;;;;;;;;;4981661;28;20050;-83
2022/09/29 08:38:50;;;;;;;0.20;0.10;;;;;;;;;;4962726;28;20096;-84
2022/09/29 08:41:19;;;;;;;0.20;0.10;;;;;;;;;;4968064;28;20073;-83
2022/09/29 08:43:49;;;;;;;0.20;0.10;;;;;;;;;;4981239;28;20065;-83
2022/09/29 08:46:42;;;;;;;0.20;0.10;;;;;;;;;;4990622;28;20038;-82
2022/09/29 08:49:17;;;;;;;0.20;0.10;;;;;;;;;;4977861;28;20045;-83
2022/09/29 08:51:45;;;;;;;0.20;0.20;;;;;;;;;;4981114;28;20561;-82
2022/09/29 08:54:32;;;;;;;0.20;0.10;;;;;;;;;;4978221;28;20343;-83
2022/09/29 08:56:59;;;;;;;0.20;0.10;;;;;;;;;;4978310;28;20104;-83
2022/09/29 08:59:27;;;;;;;0.20;0.10;;;;;;;;;;4980508;28;20048;-83
2022/09/29 09:02:00;;;;;;;0.20;0.10;;;;;;;;;;4998759;28;20044;-82
2022/09/29 09:04:27;;;;;;;0.20;0.10;;;;;;;;;;4988030;28;20052;-82
2022/09/29 09:07:03;;;;;;;0.20;0.10;;;;;;;;;;4983865;28;20042;-84
2022/09/29 09:09:32;;;;;;;0.20;0.10;;;;;;;;;;4987369;28;20057;-82
2022/09/29 09:12:17;;;;;;;0.20;0.10;;;;;;;;;;4961802;28;20500;-83
2022/09/29 09:14:58;;;;;;;0.20;0.10;;;;;;;;;;4960660;28;20045;-83
2022/09/29 09:17:30;;;;;;;0.20;0.10;;;;;;;;;;4984841;28;20531;-83
2022/09/29 09:20:12;;;;;;;0.20;0.10;;;;;;;;;;4972270;28;20082;-83
2022/09/29 09:22:55;;;;;;;0.20;0.10;;;;;;;;;;4978196;28;20046;-84
2022/09/29 09:25:28;;;;;;;0.25;0.15;;;;;;;;;;4959640;28;20259;-84
2022/09/29 09:28:23;;;;;;;0.20;0.10;;;;;;;;;;4964804;28;20096;-83
2022/09/29 09:31:08;;;;;;;0.20;0.10;;;;;;;;;;4963095;28;20061;-84
2022/09/29 09:33:40;;;;;;;0.20;0.10;;;;;;;;;;4969379;28;20038;-85
2022/09/29 09:36:18;;;;;;;0.20;0.10;;;;;;;;;;4985427;28;20042;-84
2022/09/29 09:38:47;;;;;;;0.20;0.05;;;;;;;;;;4961422;28;20089;-85
2022/09/29 09:41:15;;;;;;;0.20;0.00;;;;;;;;;;4972359;28;20029;-84
2022/09/29 09:43:43;;;;;;;0.20;0.10;;;;;;;;;;4964751;28;20034;-85
2022/09/29 09:46:13;;;;;;;0.20;0.10;;;;;;;;;;4962513;28;20046;-84
2022/09/29 09:48:44;;;;;;;0.20;0.10;;;;;;;;;;4977514;28;20069;-82
2022/09/29 09:51:21;;;;;;;0.20;0.00;;;;;;;;;;4985919;28;20039;-83
2022/09/29 09:53:49;;;;;;;0.20;0.10;;;;;;;;;;4971355;28;20048;-84
2022/09/29 09:56:25;;;;;;;0.20;0.10;;;;;;;;;;4961908;28;20051;-83
2022/09/29 09:59:03;;;;;;;1.27;0.50;;;;;;;;;;4980780;28;20042;-84
2022/09/29 10:01:29;;;;;;;0.20;0.10;;;;;;;;;;4979703;28;20513;-84
2022/09/29 10:03:57;;;;;;;0.20;0.10;;;;;;;;;;4951423;28;20042;-84
2022/09/29 10:06:23;;;;;;;0.20;0.10;;;;;;;;;;4965158;28;20117;-84
2022/09/29 10:08:50;;;;;;;0.20;0.10;;;;;;;;;;4971081;28;20041;-85
2022/09/29 10:11:16;;;;;;;0.20;0.10;;;;;;;;;;4969794;28;20069;-84
2022/09/29 10:16:13;;;;;;;0.20;0.10;;;;;;;;;;5001684;28;20438;-85
2022/09/29 10:18:41;;;;;;;0.20;0.10;;;;;;;;;;4970510;28;20070;-88
2022/09/29 10:21:22;;;;;;;0.20;0.10;;;;;;;;;;4968459;28;20044;-86
2022/09/29 10:23:52;;;;;;;0.20;0.10;;;;;;;;;;4985535;28;20455;-88
2022/09/29 10:26:24;;;;;;;0.20;0.10;;;;;;;;;;4988642;28;20546;-90
2022/09/29 10:28:53;;;;;;;0.20;0.10;;;;;;;;;;4955386;28;20034;-85
2022/09/29 10:31:25;;;;;;;1.00;0.30;;;;;;;;;;4968483;28;20042;-87
2022/09/29 10:33:59;;;;;;;0.20;0.10;;;;;;;;;;4968453;28;20556;-86
2022/09/29 10:36:28;;;;;;;0.20;0.10;;;;;;;;;;4969626;28;20172;-86
2022/09/29 10:38:54;;;;;;;0.20;0.10;;;;;;;;;;4968728;28;20500;-86
2022/09/29 10:41:21;;;;;;;0.20;0.10;;;;;;;;;;4999955;28;20041;-86
2022/09/29 10:43:48;;;;;;;0.20;0.10;;;;;;;;;;4956880;28;20130;-84
2022/09/29 10:46:32;;;;;;;0.52;0.10;;;;;;;;;;4985811;28;20076;-87
2022/09/29 10:49:08;;;;;;;0.20;0.10;;;;;;;;;;4987929;28;20042;-87
2022/09/29 10:51:34;;;;;;;0.20;0.10;;;;;;;;;;4987717;28;20122;-88
2022/09/29 10:54:07;;;;;;;0.20;0.10;;;;;;;;;;4971746;28;20046;-87
2022/09/29 10:56:33;;;;;;;;;;;;;;;;;;4987289;28;20042;-86
2022/09/29 10:59:01;;;;;;;0.20;0.10;;;;;;;;;;4970879;28;19941;-85
2022/09/29 11:01:28;;;;;;;0.20;0.10;;;;;;;;;;5003178;28;20045;-86
2022/09/29 11:04:02;;;;;;;0.20;0.10;;;;;;;;;;4984582;28;20073;-85
2022/09/29 11:06:30;;;;;;;0.20;0.10;;;;;;;;;;4985574;28;20405;-85
2022/09/29 11:08:58;;;;;;;0.20;0.10;;;;;;;;;;4967112;28;20104;-86
2022/09/29 11:11:26;;;;;;;0.20;0.10;;;;;;;;;;4968190;28;20049;-86
2022/09/29 11:13:52;;;;;;;0.20;0.10;;;;;;;;;;4970799;28;20088;-87
2022/09/29 11:16:39;;;;;;;0.20;0.10;;;;;;;;;;4955796;28;20170;-84
2022/09/29 11:19:13;;;;;;;0.20;0.10;;;;;;;;;;4985811;28;20552;-85
2022/09/29 11:21:42;;;;;;;0.20;0.10;;;;;;;;;;4966161;28;20048;-86
2022/09/29 11:24:14;;;;;;;0.20;0.00;;;;;;;;;;4986733;28;20052;-86
2022/09/29 11:27:16;;;;;;;0.20;0.10;;;;;;;;;;4969535;28;20077;-86
2022/09/29 11:29:56;;;;;;;0.20;0.00;;;;;;;;;;4923929;29;20046;-84
2022/09/29 11:32:25;;;;;;;0.20;0.00;;;;;;;;;;4965208;28;20050;-88
2022/09/29 11:34:52;;;;;;;0.20;0.08;;;;;;;;;;4987213;28;20478;-84
2022/09/29 11:37:31;;;;;;;0.20;0.10;;;;;;;;;;4987049;28;20077;-85
2022/09/29 11:39:57;;;;;;;0.20;0.10;;;;;;;;;;4985326;28;20038;-83
2022/09/29 11:42:23;;;;;;;0.20;0.10;;;;;;;;;;4985964;28;20085;-84
2022/09/29 11:44:52;;;;;;;0.20;0.10;;;;;;;;;;4984785;28;20343;-83
2022/09/29 11:47:39;;;;;;;0.20;0.10;;;;;;;;;;4969415;28;20170;-84
2022/09/29 11:50:11;;;;;;;0.20;0.10;;;;;;;;;;4985786;28;20117;-85
2022/09/29 11:52:52;;;;;;;0.20;0.10;;;;;;;;;;4987106;28;20165;-84
2022/09/29 11:55:26;;;;;;;0.20;0.10;;;;;;;;;;4969901;28;20467;-84
2022/09/29 11:57:58;;;;;;;0.20;0.10;;;;;;;;;;4967692;28;20046;-85
2022/09/29 12:00:50;;;;;;;0.20;0.10;;;;;;;;;;4987353;28;20049;-85
2022/09/29 12:03:27;;;;;;;0.20;0.20;;;;;;;;;;4933785;28;20414;-84
2022/09/29 12:06:14;;;;;;;0.20;0.08;;;;;;;;;;4969252;28;20041;-85
2022/09/29 12:08:55;;;;;;;0.30;0.15;;;;;;;;;;4985937;28;20050;-83
2022/09/29 12:11:41;;;;;;;0.20;0.10;;;;;;;;;;4983956;28;20530;-83
2022/09/29 12:14:11;;;;;;;0.20;0.10;;;;;;;;;;4983581;28;20041;-84
2022/09/29 12:16:39;;;;;;;0.20;0.10;;;;;;;;;;4989945;28;20329;-85
2022/09/29 12:19:14;;;;;;;0.20;0.10;;;;;;;;;;4989383;28;20038;-85
2022/09/29 12:21:54;;;;;;;0.20;0.10;;;;;;;;;;4988004;28;20046;-84
2022/09/29 12:24:26;;;;;;;0.20;0.10;;;;;;;;;;4987975;28;20404;-84
2022/09/29 12:26:52;;;;;;;0.20;0.10;;;;;;;;;;4989850;28;20038;-85
2022/09/29 12:29:36;;;;;;;0.20;0.10;;;;;;;;;;4993633;28;20148;-84
2022/09/29 12:32:07;;;;;;;0.20;0.10;;;;;;;;;;4974382;28;20345;-85
2022/09/29 12:34:45;;;;;;;0.20;0.10;;;;;;;;;;4971175;28;20132;-86
2022/09/29 12:37:18;;;;;;;0.20;0.10;;;;;;;;;;4991214;28;20144;-86
2022/09/29 12:39:44;;;;;;;;;;;;;;;;;;4989005;28;20038;-87
2022/09/29 12:42:16;;;;;;;0.20;0.10;;;;;;;;;;4971924;28;20528;-86
2022/09/29 12:44:46;;;;;;;0.20;0.10;;;;;;;;;;4974840;28;20038;-86
2022/09/29 12:47:18;;;;;;;0.20;0.08;;;;;;;;;;4986703;28;20117;-86
2022/09/29 12:50:02;;;;;;;0.20;0.00;;;;;;;;;;4987385;28;20073;-87
2022/09/29 12:52:34;;;;;;;0.20;0.00;;;;;;;;;;4973384;28;20041;-86
2022/09/29 12:55:03;;;;;;;0.20;0.10;;;;;;;;;;4974888;28;20520;-86
2022/09/29 12:57:38;;;;;;;0.20;0.10;;;;;;;;;;4972633;28;20607;-87
2022/09/29 13:00:12;;;;;;;0.20;0.10;;;;;;;;;;4988825;28;20084;-86
2022/09/29 13:03:01;;;;;;;0.20;0.10;;;;;;;;;;4993535;28;20064;-86
2022/09/29 13:05:31;;;;;;;0.20;0.10;;;;;;;;;;4992071;28;20338;-88
2022/09/29 13:08:01;;;;;;;0.20;0.10;;;;;;;;;;4973889;28;20049;-87
2022/09/29 13:10:36;;;;;;;0.20;0.10;;;;;;;;;;4989784;28;20516;-86
2022/09/29 13:13:21;;;;;;;0.82;0.17;;;;;;;;;;4989387;28;20045;-86
2022/09/29 13:15:50;;;;;;;0.20;0.10;;;;;;;;;;4988760;28;20091;-85
2022/09/29 13:18:16;;;;;;;0.20;0.10;;;;;;;;;;4986957;28;20034;-86
2022/09/29 13:20:51;;;;;;;0.20;0.00;;;;;;;;;;4988791;28;20488;-88
2022/09/29 13:23:30;;;;;;;0.20;0.10;;;;;;;;;;4990371;28;20034;-86
2022/09/29 13:26:15;;;;;;;0.20;0.10;;;;;;;;;;4972806;28;20116;-86
2022/09/29 13:28:41;;;;;;;0.20;0.10;;;;;;;;;;4990262;28;20060;-87
2022/09/29 13:31:10;;;;;;;0.20;0.10;;;;;;;;;;4973406;28;20033;-90
2022/09/29 13:33:37;;;;;;;0.20;0.10;;;;;;;;;;4974717;28;20391;-87
2022/09/29 13:36:03;;;;;;;0.20;0.10;;;;;;;;;;4957883;28;20092;-87
2022/09/29 13:38:35;;;;;;;0.20;0.10;;;;;;;;;;4973428;28;20100;-87
2022/09/29 13:41:39;;;;;;;0.20;0.10;;;;;;;;;;4974512;28;20466;-88
2022/09/29 13:44:17;;;;;;;0.20;0.10;;;;;;;;;;4972214;28;20192;-85
2022/09/29 13:46:43;;;;;;;0.20;0.00;;;;;;;;;;5005455;28;20046;-85
2022/09/29 13:49:12;;;;;;;0.20;0.10;;;;;;;;;;4957414;28;20038;-85
2022/09/29 13:51:48;;;;;;;0.20;0.10;;;;;;;;;;4986901;28;20180;-88
2022/09/29 13:54:33;;;;;;;0.20;0.10;;;;;;;;;;4972936;28;20475;-86
2022/09/29 13:57:12;;;;;;;0.20;0.10;;;;;;;;;;4973341;28;20421;-86
2022/09/29 14:00:01;;;;;;;0.20;0.10;;;;;;;;;;4971157;28;20404;-86
2022/09/29 14:02:30;;;;;;;0.20;0.10;;;;;;;;;;4961953;28;20061;-86
2022/09/29 14:04:56;;;;;;;0.20;0.10;;;;;;;;;;4987718;28;20056;-87
2022/09/29 14:07:45;;;;;;;0.20;0.10;;;;;;;;;;4954442;28;20133;-85
2022/09/29 14:10:30;;;;;;;0.20;0.10;;;;;;;;;;4972510;28;20038;-87
2022/09/29 14:13:16;;;;;;;0.20;0.10;;;;;;;;;;5006858;28;20103;-87
2022/09/29 14:15:46;;;;;;;0.20;0.10;;;;;;;;;;4974899;28;20038;-87
2022/09/29 14:18:35;;;;;;;0.20;0.10;;;;;;;;;;4974533;28;20081;-86
2022/09/29 14:21:03;;;;;;;0.20;0.10;;;;;;;;;;4974555;28;20038;-85
2022/09/29 14:23:44;;;;;;;0.20;0.20;;;;;;;;;;4986404;28;20038;-85
2022/09/29 14:26:29;;;;;;;0.20;0.10;;;;;;;;;;4988518;28;20038;-86
2022/09/29 14:28:56;;;;;;;0.20;0.10;;;;;;;;;;4990122;28;20579;-85
2022/09/29 14:31:23;;;;;;;0.20;0.10;;;;;;;;;;4958082;28;20039;-86
2022/09/29 14:33:52;;;;;;;0.20;0.10;;;;;;;;;;4969077;28;20042;-88
2022/09/29 14:36:20;;;;;;;0.20;0.10;;;;;;;;;;4988349;28;20033;-86
2022/09/29 14:38:48;;;;;;;0.20;0.10;;;;;;;;;;4990363;28;20046;-87
2022/09/29 14:41:25;;;;;;;0.20;0.10;;;;;;;;;;4989102;28;20496;-87
2022/09/29 14:44:05;;;;;;;0.20;0.10;;;;;;;;;;5009405;28;20041;-87
2022/09/29 14:52:25;;;;;;;0.20;0.10;;;;;;;;;;4987529;28;20630;-86
2022/09/29 14:55:04;;;;;;;0.20;0.10;;;;;;;;;;4970526;28;20037;-87
2022/09/29 14:57:47;;;;;;;0.20;0.10;;;;;;;;;;4988033;28;20057;-88
2022/09/29 15:00:22;;;;;;;0.20;0.10;;;;;;;;;;4985682;28;20109;-88
2022/09/29 15:02:54;;;;;;;0.20;0.10;;;;;;;;;;4973238;28;20037;-86
2022/09/29 15:05:26;;;;;;;0.20;0.10;;;;;;;;;;4967136;28;20123;-88
2022/09/29 15:07:52;;;;;;;0.20;0.10;;;;;;;;;;4972663;28;20045;-88
2022/09/29 15:10:23;;;;;;;0.20;0.10;;;;;;;;;;4971348;28;20041;-86
2022/09/29 15:12:52;;;;;;;0.20;0.10;;;;;;;;;;4984403;28;20049;-85